Time;durP1;ratioP1;P1;durP2;ratioP2;P2;SDS_P1;SDS_P2;PMS_P1;PMS_P2;Temp;Humidity;BMP_temperature;BMP_pressure;BME280_temperature;BME280_humidity;BME280_pressure;Samples;Min_cycle;Max_cycle;Signal;HPM_P1;HPM_P2
2023/11/25 00:01:01;;;;;;;;;;;;;;;2.99;80.87;99486.66;4219171;28;20366;-68
2023/11/25 00:03:04;;;;;;;;;;;;;;;2.97;80.76;99486.81;4220820;28;20453;-69
2023/11/25 00:05:06;;;;;;;;;;;;;;;2.97;81.11;99492.16;4220614;28;20031;-69
2023/11/25 00:07:08;;;;;;;;;;;;;;;2.99;81.39;99495.47;4220439;28;20019;-69
2023/11/25 00:09:15;;;;;;;;;;;;;;;2.98;81.23;99498.31;4219048;28;20432;-70
2023/11/25 00:11:17;;;;;;;;;;;;;;;2.97;81.04;99507.31;4220211;28;20018;-67
2023/11/25 00:13:20;;;;;;;;;;;;;;;2.97;80.98;99510.00;4221485;28;20014;-67
2023/11/25 00:15:23;;;;;;;;;;;;;;;2.96;81.22;99502.97;4219340;28;20019;-68
2023/11/25 00:17:28;;;;;;;;;;;;;;;2.94;81.14;99511.13;4219308;28;20011;-68
2023/11/25 00:19:29;;;;;;;;;;;;;;;2.96;81.30;99518.97;4220276;28;20026;-70
2023/11/25 00:21:31;;;;;;;;;;;;;;;2.95;81.39;99522.66;4220763;28;20462;-69
2023/11/25 00:23:33;;;;;;;;;;;;;;;2.94;81.22;99520.97;4219764;28;19924;-68
2023/11/25 00:25:35;;;;;;;;;;;;;;;2.94;81.43;99518.31;4220099;28;20026;-71
2023/11/25 00:27:36;;;;;;;;;;;;;;;2.92;81.38;99523.81;4220194;28;19924;-70
2023/11/25 00:29:38;;;;;;;;;;;;;;;2.94;81.71;99527.13;4203556;28;20020;-68
2023/11/25 00:31:41;;;;;;;;;;;;;;;2.92;81.31;99523.81;4219990;28;20015;-68
2023/11/25 00:33:43;;;;;;;;;;;;;;;2.91;81.47;99526.63;4218619;28;20054;-69
2023/11/25 00:35:45;;;;;;;;;;;;;;;2.91;81.54;99539.97;4218661;28;20018;-74
2023/11/25 00:37:46;;;;;;;;;;;;;;;2.91;81.57;99539.97;4220587;28;20492;-71
2023/11/25 00:39:48;;;;;;;;;;;;;;;2.88;81.77;99549.09;4218907;28;19948;-68
2023/11/25 00:41:50;;;;;;;;;;;;;;;2.87;81.90;99542.09;4218895;28;20023;-69
2023/11/25 00:43:51;;;;;;;;;;;;;;;2.83;81.84;99546.91;4220476;28;20015;-68
2023/11/25 00:45:53;;;;;;;;;;;;;;;2.85;82.02;99560.06;4220154;28;20027;-70
2023/11/25 00:47:57;;;;;;;;;;;;;;;2.83;82.03;99562.91;4219034;27;19928;-69
2023/11/25 00:49:59;;;;;;;;;;;;;;;2.83;82.01;99562.91;4220716;28;20027;-68
2023/11/25 00:52:02;;;;;;;;;;;;;;;2.84;81.77;99569.09;4217551;28;20015;-69
2023/11/25 00:54:04;;;;;;;;;;;;;;;2.83;81.63;99573.56;4219636;28;20019;-68
2023/11/25 00:56:07;;;;;;;;;;;;;;;2.82;81.75;99571.91;4202252;28;20379;-68
2023/11/25 00:58:10;;;;;;;;;;;;;;;2.81;81.67;99578.22;4220124;28;20039;-67
2023/11/25 01:00:15;;;;;;;;;;;;;;;2.82;81.45;99577.25;4217254;28;20023;-68
2023/11/25 01:02:18;;;;;;;;;;;;;;;2.80;81.55;99581.88;4235214;27;20022;-70
2023/11/25 01:04:22;;;;;;;;;;;;;;;2.80;81.10;99584.53;4219954;28;20022;-68
2023/11/25 01:06:24;;;;;;;;;;;;;;;2.80;81.12;99584.53;4220261;28;20011;-68
2023/11/25 01:08:29;;;;;;;;;;;;;;;2.82;81.23;99589.72;4219267;28;20510;-70
2023/11/25 01:10:31;;;;;;;;;;;;;;;2.80;81.19;99589.88;4218487;28;20378;-68
2023/11/25 01:12:35;;;;;;;;;;;;;;;2.79;80.90;99598.88;4219339;28;20006;-67
2023/11/25 01:14:37;;;;;;;;;;;;;;;2.79;80.90;99596.22;4219773;28;20010;-68
2023/11/25 01:16:39;;;;;;;;;;;;;;;2.78;80.37;99596.38;4219656;28;20031;-68
2023/11/25 01:18:41;;;;;;;;;;;;;;;2.77;80.32;99600.84;4219021;28;20046;-69
2023/11/25 01:20:45;;;;;;;;;;;;;;;2.77;80.43;99592.84;4219644;28;20019;-68
2023/11/25 01:22:47;;;;;;;;;;;;;;;2.77;80.22;99605.34;4234878;27;20022;-68
2023/11/25 01:24:50;;;;;;;;;;;;;;;2.76;80.03;99604.53;4219445;28;20039;-67
2023/11/25 01:26:52;;;;;;;;;;;;;;;2.75;80.24;99600.19;4219304;28;20022;-68
2023/11/25 01:28:55;;;;;;;;;;;;;;;2.75;80.06;99607.34;4219785;28;19931;-69
2023/11/25 01:30:57;;;;;;;;;;;;;;;2.75;80.17;99616.19;4216999;28;20012;-70
2023/11/25 01:32:59;;;;;;;;;;;;;;;2.75;79.97;99618.84;4219762;28;20023;-70
2023/11/25 01:35:00;;;;;;;;;;;;;;;2.75;80.01;99629.50;4219212;28;20031;-69
2023/11/25 01:37:03;;;;;;;;;;;;;;;2.75;79.92;99624.16;4218889;28;19927;-68
2023/11/25 01:39:06;;;;;;;;;;;;;;;2.74;79.61;99625.16;4219717;28;20460;-69
2023/11/25 01:41:08;;;;;;;;;;;;;;;2.73;80.06;99628.84;4219902;28;20408;-68
2023/11/25 01:43:10;;;;;;;;;;;;;;;2.74;79.83;99641.16;4218880;28;20018;-68
2023/11/25 01:45:12;;;;;;;;;;;;;;;2.75;79.85;99636.69;4217892;28;20023;-69
2023/11/25 01:47:13;;;;;;;;;;;;;;;2.73;79.56;99634.16;4218221;28;20481;-67
2023/11/25 01:49:15;;;;;;;;;;;;;;;2.73;79.82;99644.84;4219629;28;19984;-69
2023/11/25 01:51:17;;;;;;;;;;;;;;;2.75;79.73;99642.00;4217376;28;20022;-68
2023/11/25 01:53:21;;;;;;;;;;;;;;;2.75;79.39;99645.50;4219874;28;20026;-69
2023/11/25 01:55:22;;;;;;;;;;;;;;;2.77;79.69;99645.34;4218862;28;20023;-67
2023/11/25 01:57:25;;;;;;;;;;;;;;;2.77;79.50;99645.34;4218132;28;20475;-69
2023/11/25 01:59:27;;;;;;;;;;;;;;;2.76;79.53;99644.53;4216933;28;20093;-71
2023/11/25 02:01:29;;;;;;;;;;;;;;;2.76;79.45;99641.00;4233189;27;20505;-67
2023/11/25 02:03:32;;;;;;;;;;;;;;;2.76;79.40;99641.84;4217922;28;20018;-68
2023/11/25 02:05:34;;;;;;;;;;;;;;;2.75;79.38;99656.16;4217563;28;20015;-68
2023/11/25 02:07:36;;;;;;;;;;;;;;;2.75;79.30;99650.84;4218817;28;20477;-69
2023/11/25 02:09:39;;;;;;;;;;;;;;;2.75;79.19;99648.16;4217313;28;20019;-67
2023/11/25 02:11:53;;;;;;;;;;;;;;;2.75;79.40;99650.84;4217888;28;20342;-70
2023/11/25 02:13:55;;;;;;;;;;;;;;;2.73;79.57;99652.81;4217632;28;20022;-68
2023/11/25 02:15:57;;;;;;;;;;;;;;;2.74;79.25;99656.31;4218541;28;20031;-68
2023/11/25 02:17:59;;;;;;;;;;;;;;;2.74;79.32;99653.66;4219013;28;20019;-67
2023/11/25 02:20:04;;;;;;;;;;;;;;;2.75;79.30;99652.69;4200562;28;20018;-68
2023/11/25 02:22:10;;;;;;;;;;;;;;;2.76;79.22;99657.00;4201627;28;20019;-69
2023/11/25 02:24:13;;;;;;;;;;;;;;;2.77;79.25;99650.69;4219327;28;20035;-67
2023/11/25 02:26:15;;;;;;;;;;;;;;;2.77;79.17;99653.34;4218784;28;20035;-69
2023/11/25 02:28:16;;;;;;;;;;;;;;;2.77;79.00;99667.50;4219564;28;20019;-68
2023/11/25 02:30:19;;;;;;;;;;;;;;;2.78;78.51;99665.72;4217740;28;19928;-68
2023/11/25 02:32:21;;;;;;;;;;;;;;;2.76;78.43;99663.19;4219047;28;20007;-69
2023/11/25 02:34:24;;;;;;;;;;;;;;;2.77;78.40;99662.19;4219308;28;20027;-67
2023/11/25 02:36:26;;;;;;;;;;;;;;;2.77;78.66;99669.34;4201486;28;20035;-68
2023/11/25 02:38:28;;;;;;;;;;;;;;;2.77;78.64;99662.19;4219148;28;20028;-71
2023/11/25 02:40:32;;;;;;;;;;;;;;;2.78;78.78;99671.88;4218653;28;20046;-71
2023/11/25 02:42:35;;;;;;;;;;;;;;;2.78;78.64;99679.88;4219003;28;20016;-68
2023/11/25 02:44:37;;;;;;;;;;;;;;;2.80;78.59;99667.22;4218736;28;20517;-70
2023/11/25 02:46:38;;;;;;;;;;;;;;;2.81;78.42;99671.56;4219335;28;20019;-68
2023/11/25 02:48:41;;;;;;;;;;;;;;;2.81;78.46;99671.56;4220699;28;20074;-69
2023/11/25 02:50:43;;;;;;;;;;;;;;;2.82;78.66;99672.38;4220099;28;20447;-69
2023/11/25 02:52:46;;;;;;;;;;;;;;;2.82;78.76;99691.06;4221616;28;20023;-68
2023/11/25 02:54:48;;;;;;;;;;;;;;;2.81;78.47;99700.06;4221406;28;20039;-67
2023/11/25 02:56:51;;;;;;;;;;;;;;;2.81;78.46;99705.41;4220835;28;20026;-68
2023/11/25 02:58:53;;;;;;;;;;;;;;;2.82;78.99;99699.91;4222157;28;20521;-73
2023/11/25 03:01:01;;;;;;;;;;;;;;;2.82;78.65;99701.72;4221528;27;20023;-70
2023/11/25 03:03:07;;;;;;;;;;;;;;;2.82;79.00;99707.91;4222608;28;19999;-69
2023/11/25 03:05:10;;;;;;;;;;;;;;;2.82;78.79;99713.25;4222402;28;20034;-70
2023/11/25 03:07:12;;;;;;;;;;;;;;;2.82;78.58;99707.06;4221052;28;20054;-70
2023/11/25 03:09:13;;;;;;;;;;;;;;;2.81;78.76;99708.91;4222912;28;20461;-69
2023/11/25 03:11:20;;;;;;;;;;;;;;;2.81;78.98;99714.22;4222042;28;19959;-69
2023/11/25 03:13:25;;;;;;;;;;;;;;;2.81;79.11;99708.91;4220790;28;20026;-68
2023/11/25 03:15:26;;;;;;;;;;;;;;;2.80;78.92;99717.03;4222350;28;20018;-71
2023/11/25 03:17:29;;;;;;;;;;;;;;;2.79;79.09;99716.22;4221987;28;20453;-69
2023/11/25 03:19:31;;;;;;;;;;;;;;;2.78;79.10;99722.53;4220738;28;20015;-69
2023/11/25 03:21:33;;;;;;;;;;;;;;;2.77;78.93;99720.00;4221350;28;20031;-70
2023/11/25 03:23:36;;;;;;;;;;;;;;;2.76;79.47;99724.53;4222217;28;20426;-68
2023/11/25 03:25:38;;;;;;;;;;;;;;;2.75;79.73;99730.00;4221802;28;20023;-70
2023/11/25 03:27:39;;;;;;;;;;;;;;;2.75;79.67;99730.00;4221027;28;20047;-69
2023/11/25 03:29:43;;;;;;;;;;;;;;;2.74;79.88;99733.66;4221368;27;20398;-69
2023/11/25 03:31:45;;;;;;;;;;;;;;;2.74;79.99;99736.31;4221546;28;19935;-69
2023/11/25 03:33:46;;;;;;;;;;;;;;;2.74;80.08;99738.97;4221775;28;20031;-68
2023/11/25 03:35:48;;;;;;;;;;;;;;;2.76;80.51;99742.31;4220518;28;20318;-70
2023/11/25 03:37:50;;;;;;;;;;;;;;;2.75;80.39;99749.50;4221415;28;20026;-68
2023/11/25 03:39:52;;;;;;;;;;;;;;;2.76;80.53;99747.66;4219220;28;20563;-68
2023/11/25 03:41:54;;;;;;;;;;;;;;;2.75;80.59;99756.66;4221196;28;20476;-68
2023/11/25 03:43:56;;;;;;;;;;;;;;;2.76;80.69;99750.31;4221175;28;20010;-68
2023/11/25 03:46:00;;;;;;;;;;;;;;;2.75;80.64;99754.00;4220803;28;20022;-70
2023/11/25 03:48:02;;;;;;;;;;;;;;;2.75;81.05;99757.50;4236504;27;20085;-67
2023/11/25 03:50:06;;;;;;;;;;;;;;;2.77;81.10;99754.69;4219991;28;20027;-69
2023/11/25 03:52:07;;;;;;;;;;;;;;;2.76;81.10;99761.00;4219173;28;19981;-68
2023/11/25 03:54:09;;;;;;;;;;;;;;;2.76;80.95;99758.31;4219145;28;19928;-69
2023/11/25 03:56:13;;;;;;;;;;;;;;;2.75;81.20;99757.50;4220820;28;20122;-69
2023/11/25 03:58:15;;;;;;;;;;;;;;;2.76;81.06;99761.00;4220232;28;20042;-68
2023/11/25 04:00:18;;;;;;;;;;;;;;;2.77;81.07;99762.69;4220628;28;20090;-70
2023/11/25 04:02:22;;;;;;;;;;;;;;;2.76;81.27;99772.53;4220636;28;20018;-68
2023/11/25 04:04:25;;;;;;;;;;;;;;;2.76;81.23;99769.84;4219718;28;20042;-68
2023/11/25 04:06:27;;;;;;;;;;;;;;;2.77;81.28;99762.69;4221234;28;20014;-68
2023/11/25 04:08:32;;;;;;;;;;;;;;;2.77;81.52;99763.50;4221870;28;19988;-69
2023/11/25 04:10:34;;;;;;;;;;;;;;;2.77;81.34;99765.34;4203405;28;20018;-69
2023/11/25 04:12:36;;;;;;;;;;;;;;;2.76;81.37;99772.53;4220355;28;19928;-68
2023/11/25 04:14:38;;;;;;;;;;;;;;;2.76;81.65;99769.84;4221071;28;20019;-68
2023/11/25 04:16:42;;;;;;;;;;;;;;;2.76;81.57;99775.19;4220420;28;20019;-70
2023/11/25 04:18:45;;;;;;;;;;;;;;;2.76;81.78;99782.31;4219007;28;20019;-70
2023/11/25 04:20:48;;;;;;;;;;;;;;;2.77;81.86;99778.69;4219674;28;20018;-72
2023/11/25 04:22:50;;;;;;;;;;;;;;;2.77;81.65;99778.69;4220641;27;19924;-69
2023/11/25 04:24:53;;;;;;;;;;;;;;;2.78;81.94;99783.88;4219023;28;20015;-68
2023/11/25 04:26:55;;;;;;;;;;;;;;;2.80;82.09;99786.38;4219978;28;20353;-68
2023/11/25 04:28:56;;;;;;;;;;;;;;;2.78;82.28;99783.03;4219810;27;20019;-68
2023/11/25 04:30:58;;;;;;;;;;;;;;;2.79;82.41;99787.34;4220597;28;19928;-69
2023/11/25 04:33:00;;;;;;;;;;;;;;;2.80;82.55;99789.88;4219747;28;19931;-70
2023/11/25 04:35:05;;;;;;;;;;;;;;;2.79;82.61;99793.56;4220122;28;20018;-71
2023/11/25 04:37:07;;;;;;;;;;;;;;;2.79;82.44;99788.22;4220685;28;20055;-68
2023/11/25 04:39:10;;;;;;;;;;;;;;;2.79;82.49;99801.56;4219597;28;20018;-68
2023/11/25 04:41:12;;;;;;;;;;;;;;;2.80;82.45;99789.88;4219626;28;20026;-68
2023/11/25 04:43:14;;;;;;;;;;;;;;;2.81;82.73;99799.56;4219802;28;20023;-69
2023/11/25 04:45:16;;;;;;;;;;;;;;;2.81;82.54;99788.91;4220429;28;20039;-67
2023/11/25 04:47:18;;;;;;;;;;;;;;;2.81;82.91;99791.56;4220415;28;20838;-70
2023/11/25 04:49:21;;;;;;;;;;;;;;;2.82;82.77;99801.25;4219043;28;20011;-70
2023/11/25 04:51:24;;;;;;;;;;;;;;;2.82;82.79;99806.59;4220324;28;20022;-68
2023/11/25 04:53:26;;;;;;;;;;;;;;;2.82;82.98;99800.41;4220068;28;20350;-68
2023/11/25 04:55:28;;;;;;;;;;;;;;;2.82;83.13;99803.06;4220426;28;20054;-69
2023/11/25 04:57:29;;;;;;;;;;;;;;;2.83;82.91;99810.91;4219696;28;20461;-68
2023/11/25 04:59:31;;;;;;;;;;;;;;;2.85;83.17;99805.44;4220393;28;19927;-68
2023/11/25 05:01:33;;;;;;;;;;;;;;;2.84;82.87;99814.44;4219466;28;19999;-69
2023/11/25 05:03:35;;;;;;;;;;;;;;;2.85;82.87;99821.44;4220307;28;20357;-70
2023/11/25 05:05:38;;;;;;;;;;;;;;;2.84;82.94;99815.25;4218638;28;20224;-70
2023/11/25 05:07:42;;;;;;;;;;;;;;;2.85;82.86;99821.44;4220668;28;20011;-68
2023/11/25 05:09:43;;;;;;;;;;;;;;;2.83;82.76;99818.91;4219968;28;20079;-68
2023/11/25 05:11:45;;;;;;;;;;;;;;;2.82;82.70;99825.25;4219913;28;20020;-71
2023/11/25 05:13:47;;;;;;;;;;;;;;;2.82;82.62;99819.91;4219751;28;20617;-71
2023/11/25 05:15:49;;;;;;;;;;;;;;;2.80;82.59;99829.88;4220458;28;20015;-70
2023/11/25 05:17:51;;;;;;;;;;;;;;;2.80;82.74;99829.88;4219911;28;20031;-68
2023/11/25 05:19:53;;;;;;;;;;;;;;;2.79;82.43;99838.03;4220309;28;20011;-68
2023/11/25 05:21:55;;;;;;;;;;;;;;;2.80;82.53;99842.38;4219994;28;20359;-68
2023/11/25 05:23:59;;;;;;;;;;;;;;;2.79;82.60;99852.22;4220025;28;20469;-67
2023/11/25 05:26:01;;;;;;;;;;;;;;;2.78;82.82;99852.38;4219856;28;20019;-68
2023/11/25 05:28:03;;;;;;;;;;;;;;;2.77;82.73;99850.69;4219323;28;20454;-69
2023/11/25 05:30:06;;;;;;;;;;;;;;;2.76;82.74;99855.19;4218357;28;20038;-67
2023/11/25 05:32:08;;;;;;;;;;;;;;;2.74;82.79;99856.31;4217731;28;20486;-70
2023/11/25 05:34:12;;;;;;;;;;;;;;;2.73;82.85;99854.63;4218424;28;20446;-71
2023/11/25 05:36:14;;;;;;;;;;;;;;;2.72;82.77;99856.44;4219930;28;20035;-70
2023/11/25 05:38:18;;;;;;;;;;;;;;;2.72;82.99;99848.44;4219529;28;20840;-70
2023/11/25 05:40:21;;;;;;;;;;;;;;;2.71;82.81;99852.09;4219538;28;20022;-68
2023/11/25 05:42:27;;;;;;;;;;;;;;;2.68;82.76;99849.72;4219685;28;20031;-68
2023/11/25 05:44:29;;;;;;;;;;;;;;;2.68;82.72;99860.38;4218707;28;20027;-69
2023/11/25 05:46:31;;;;;;;;;;;;;;;2.66;82.84;99859.72;4219087;28;20441;-68
2023/11/25 05:48:34;;;;;;;;;;;;;;;2.66;82.81;99860.53;4217677;28;20027;-70
2023/11/25 05:50:37;;;;;;;;;;;;;;;2.63;82.96;99866.19;4218593;28;20016;-70
2023/11/25 05:52:40;;;;;;;;;;;;;;;2.65;82.76;99871.34;4218108;28;20370;-69
2023/11/25 05:54:43;;;;;;;;;;;;;;;2.63;82.83;99870.66;4218930;28;19967;-69
2023/11/25 05:56:48;;;;;;;;;;;;;;;2.61;82.46;99862.81;4219053;28;20027;-71
2023/11/25 05:58:51;;;;;;;;;;;;;;;2.63;82.60;99878.66;4218149;28;20077;-69
2023/11/25 06:00:54;;;;;;;;;;;;;;;2.59;82.46;99870.13;4218842;28;20055;-69
2023/11/25 06:02:56;;;;;;;;;;;;;;;2.58;82.55;99884.44;4216658;28;20022;-69
2023/11/25 06:04:57;;;;;;;;;;;;;;;2.57;82.88;99877.44;4218065;28;20074;-69
2023/11/25 06:06:59;;;;;;;;;;;;;;;2.57;82.84;99881.91;4219546;28;20011;-70
2023/11/25 06:09:01;;;;;;;;;;;;;;;2.56;82.62;99878.41;4218464;28;20028;-69
2023/11/25 06:11:03;;;;;;;;;;;;;;;2.53;82.53;99887.53;4218552;28;19995;-69
2023/11/25 06:13:06;;;;;;;;;;;;;;;2.50;82.62;99887.81;4218504;28;20035;-70
2023/11/25 06:15:11;;;;;;;;;;;;;;;2.49;82.72;99891.50;4218551;28;19958;-70
2023/11/25 06:17:13;;;;;;;;;;;;;;;2.48;82.65;99895.13;4218398;28;20034;-70
2023/11/25 06:19:17;;;;;;;;;;;;;;;2.47;82.59;99889.94;4219617;28;20446;-70
2023/11/25 06:21:20;;;;;;;;;;;;;;;2.45;82.82;99897.25;4203427;28;20015;-69
2023/11/25 06:23:21;;;;;;;;;;;;;;;2.45;82.68;99898.09;4221651;28;19923;-70
2023/11/25 06:25:23;;;;;;;;;;;;;;;2.44;82.86;99907.06;4223008;28;20063;-70
2023/11/25 06:27:24;;;;;;;;;;;;;;;2.43;82.57;99897.41;4222534;28;20015;-69
2023/11/25 06:29:28;;;;;;;;;;;;;;;2.44;82.96;99901.72;4221988;28;20023;-70
2023/11/25 06:31:31;;;;;;;;;;;;;;;2.41;82.90;99899.34;4221089;28;20581;-70
2023/11/25 06:33:33;;;;;;;;;;;;;;;2.41;82.79;99894.03;4222589;27;20052;-69
2023/11/25 06:35:36;;;;;;;;;;;;;;;2.39;82.82;99896.00;4222503;28;20023;-70
2023/11/25 06:37:40;;;;;;;;;;;;;;;2.39;82.81;99896.00;4223705;28;20031;-70
2023/11/25 06:39:41;;;;;;;;;;;;;;;2.38;82.77;99898.81;4223145;28;20023;-70
2023/11/25 06:41:48;;;;;;;;;;;;;;;2.37;82.80;99895.31;4222952;28;19984;-70
2023/11/25 06:43:50;;;;;;;;;;;;;;;2.37;82.38;99902.47;4222937;28;20022;-69
2023/11/25 06:45:54;;;;;;;;;;;;;;;2.36;82.63;99898.13;4222630;28;20011;-69
2023/11/25 06:47:56;;;;;;;;;;;;;;;2.35;82.20;99897.28;4223161;28;20466;-69
2023/11/25 06:49:57;;;;;;;;;;;;;;;2.33;82.36;99901.91;4222851;28;20015;-70
2023/11/25 06:51:59;;;;;;;;;;;;;;;2.32;82.54;99897.56;4222545;28;20027;-70
2023/11/25 06:54:01;;;;;;;;;;;;;;;2.30;82.48;99894.22;4222400;28;20011;-70
2023/11/25 06:56:03;;;;;;;;;;;;;;;2.29;82.33;99903.22;4222141;28;19928;-69
2023/11/25 06:58:05;;;;;;;;;;;;;;;2.27;82.54;99894.50;4223019;28;20015;-69
2023/11/25 07:00:08;;;;;;;;;;;;;;;2.17;82.60;99881.22;4221693;28;20026;-70
2023/11/25 07:02:12;;;;;;;;;;;;;;;2.23;82.42;99893.94;4221970;28;20393;-70
2023/11/25 07:04:14;;;;;;;;;;;;;;;2.22;82.63;99891.44;4221890;28;20023;-70
2023/11/25 07:06:17;;;;;;;;;;;;;;;2.21;82.75;99897.72;4221967;28;20027;-70
2023/11/25 07:08:19;;;;;;;;;;;;;;;2.19;82.95;99902.38;4221757;28;20553;-69
2023/11/25 07:10:21;;;;;;;;;;;;;;;2.13;82.66;99896.66;4222109;28;20006;-70
2023/11/25 07:12:23;;;;;;;;;;;;;;;2.16;82.85;99896.34;4221315;28;20360;-70
2023/11/25 07:14:25;;;;;;;;;;;;;;;2.16;82.77;99900.81;4221650;28;20465;-69
2023/11/25 07:16:27;;;;;;;;;;;;;;;2.14;82.57;99898.31;4221164;28;19932;-69
2023/11/25 07:18:31;;;;;;;;;;;;;;;2.13;82.71;99891.31;4221706;28;20015;-70
2023/11/25 07:20:33;;;;;;;;;;;;;;;2.15;82.83;99893.84;4221311;28;20561;-70
2023/11/25 07:22:35;;;;;;;;;;;;;;;2.13;83.03;99901.97;4221655;28;20046;-70
2023/11/25 07:24:39;;;;;;;;;;;;;;;2.14;83.02;99911.63;4221641;28;20023;-69
2023/11/25 07:26:51;;;;;;;;;;;;;;;2.14;82.85;99902.81;4220778;28;20048;-70
2023/11/25 07:28:53;;;;;;;;;;;;;;;2.14;82.72;99900.13;4220238;28;20418;-70
2023/11/25 07:30:55;;;;;;;;;;;;;;;2.15;82.75;99905.31;4219448;28;20039;-70
2023/11/25 07:32:57;;;;;;;;;;;;;;;2.14;82.64;99902.81;4220612;28;20027;-69
2023/11/25 07:35:00;;;;;;;;;;;;;;;2.14;82.84;99897.47;4221612;28;20034;-70
2023/11/25 07:37:02;;;;;;;;;;;;;;;2.14;82.76;99892.97;4220864;28;20524;-70
2023/11/25 07:39:04;;;;;;;;;;;;;;;2.14;82.71;99897.47;4220306;28;20022;-70
2023/11/25 07:41:06;;;;;;;;;;;;;;;2.14;82.63;99886.81;4219649;28;20027;-70
2023/11/25 07:43:08;;;;;;;;;;;;;;;2.14;82.50;99889.47;4220435;28;20018;-69
2023/11/25 07:45:10;;;;;;;;;;;;;;;2.14;82.47;99892.16;4220547;28;20022;-70
2023/11/25 07:47:15;;;;;;;;;;;;;;;2.14;82.61;99892.97;4221447;28;19999;-70
2023/11/25 07:49:18;;;;;;;;;;;;;;;2.13;82.38;99893.97;4220395;27;20014;-69
2023/11/25 07:51:21;;;;;;;;;;;;;;;2.14;82.31;99892.16;4221153;28;20007;-70
2023/11/25 07:53:24;;;;;;;;;;;;;;;2.13;82.29;99896.66;4222483;28;19987;-71
2023/11/25 07:55:26;;;;;;;;;;;;;;;2.15;82.25;99896.50;4220528;28;20018;-70
2023/11/25 07:57:27;;;;;;;;;;;;;;;2.14;82.56;99897.47;4220152;28;20193;-70
2023/11/25 07:59:29;;;;;;;;;;;;;;;2.14;82.50;99900.97;4221442;28;19969;-70
2023/11/25 08:01:31;;;;;;;;;;;;;;;2.17;82.37;99907.84;4220409;28;20014;-70
2023/11/25 08:03:34;;;;;;;;;;;;;;;2.18;82.19;99909.53;4220498;28;20026;-69
2023/11/25 08:05:36;;;;;;;;;;;;;;;2.18;82.16;99906.88;4220539;28;20460;-71
2023/11/25 08:07:39;;;;;;;;;;;;;;;2.19;82.32;99903.22;4219599;28;20022;-70
2023/11/25 08:09:41;;;;;;;;;;;;;;;2.22;81.99;99910.09;4220586;28;20473;-69
2023/11/25 08:11:43;;;;;;;;;;;;;;;2.22;82.26;99905.59;4220256;28;20010;-69
2023/11/25 08:13:45;;;;;;;;;;;;;;;2.24;81.98;99911.63;4221812;28;20376;-70
2023/11/25 08:15:47;;;;;;;;;;;;;;;2.24;82.04;99914.28;4221306;28;20034;-69
2023/11/25 08:17:48;;;;;;;;;;;;;;;2.27;81.95;99913.16;4220508;28;19931;-70
2023/11/25 08:19:50;;;;;;;;;;;;;;;2.28;81.76;99918.34;4221556;28;19924;-70
2023/11/25 08:21:53;;;;;;;;;;;;;;;2.30;81.65;99921.72;4220523;28;20352;-70
2023/11/25 08:23:56;;;;;;;;;;;;;;;2.33;81.71;99931.22;4220316;28;20032;-69
2023/11/25 08:25:58;;;;;;;;;;;;;;;2.36;81.74;99924.78;4220960;28;20018;-69
2023/11/25 08:28:00;;;;;;;;;;;;;;;2.36;81.07;99928.28;4221386;28;20018;-69
2023/11/25 08:30:02;;;;;;;;;;;;;;;2.40;80.96;99928.81;4220520;28;20528;-69
2023/11/25 08:32:05;;;;;;;;;;;;;;;2.41;80.63;99933.19;4221015;28;20500;-70
2023/11/25 08:34:09;;;;;;;;;;;;;;;2.44;80.63;99931.06;4220177;28;20023;-69
2023/11/25 08:36:11;;;;;;;;;;;;;;;2.46;80.62;99931.78;4220352;28;20022;-69
2023/11/25 08:38:14;;;;;;;;;;;;;;;2.49;80.50;99934.16;4220529;28;20370;-69
2023/11/25 08:40:17;;;;;;;;;;;;;;;2.50;80.35;99927.81;4220804;27;20007;-69
2023/11/25 08:42:19;;;;;;;;;;;;;;;2.52;80.20;99931.19;4220880;28;20038;-69
2023/11/25 08:44:21;;;;;;;;;;;;;;;2.56;80.16;99920.25;4220442;28;20425;-69
2023/11/25 08:46:22;;;;;;;;;;;;;;;2.58;80.41;99929.75;4219692;28;20027;-69
2023/11/25 08:48:25;;;;;;;;;;;;;;;2.60;80.48;99925.13;4220603;28;20028;-70
2023/11/25 08:50:28;;;;;;;;;;;;;;;2.64;80.51;99923.00;4220499;28;20061;-69
2023/11/25 08:52:34;;;;;;;;;;;;;;;2.68;80.17;99922.56;4219646;28;20022;-69
2023/11/25 08:54:36;;;;;;;;;;;;;;;2.72;80.08;99923.13;4220654;27;20039;-69
2023/11/25 08:56:44;;;;;;;;;;;;;;;2.77;80.22;99923.50;4219931;28;20018;-69
2023/11/25 08:58:45;;;;;;;;;;;;;;;2.84;80.20;99921.13;4220889;28;20020;-70
2023/11/25 09:00:51;;;;;;;;;;;;;;;2.90;80.02;99925.88;4220480;28;20368;-70
2023/11/25 09:02:54;;;;;;;;;;;;;;;2.99;80.28;99924.13;4219997;28;20014;-70
2023/11/25 09:04:55;;;;;;;;;;;;;;;3.07;80.28;99921.53;4218088;28;20016;-69
2023/11/25 09:06:57;;;;;;;;;;;;;;;3.15;80.19;99926.13;4220158;28;19923;-69
2023/11/25 09:08:59;;;;;;;;;;;;;;;3.23;80.18;99929.75;4217830;28;20412;-69
2023/11/25 09:11:02;;;;;;;;;;;;;;;3.35;79.72;99934.88;4219916;28;20010;-69
2023/11/25 09:13:05;;;;;;;;;;;;;;;3.41;79.55;99942.28;4219471;28;20035;-68
2023/11/25 09:15:08;;;;;;;;;;;;;;;3.47;79.46;99957.69;4219263;28;20022;-67
2023/11/25 09:17:11;;;;;;;;;;;;;;;3.52;79.01;99950.06;4219555;28;20027;-68
2023/11/25 09:19:13;;;;;;;;;;;;;;;3.56;78.60;99942.63;4219993;28;20039;-69
2023/11/25 09:21:15;;;;;;;;;;;;;;;3.58;78.03;99951.31;4218984;28;20561;-67
2023/11/25 09:23:17;;;;;;;;;;;;;;;3.58;76.94;99943.31;4219625;28;20019;-68
2023/11/25 09:25:19;;;;;;;;;;;;;;;3.62;76.98;99944.69;4219155;28;20026;-69
2023/11/25 09:27:21;;;;;;;;;;;;;;;3.63;76.44;99940.19;4219935;28;20019;-68
2023/11/25 09:29:24;;;;;;;;;;;;;;;3.65;76.19;99931.00;4219454;28;20019;-68
2023/11/25 09:31:26;;;;;;;;;;;;;;;3.63;75.93;99937.50;4217621;28;20007;-68
2023/11/25 09:33:28;;;;;;;;;;;;;;;3.61;75.75;99943.84;4219716;28;20101;-68
2023/11/25 09:35:31;;;;;;;;;;;;;;;3.61;75.66;99946.50;4218938;28;20010;-68
2023/11/25 09:37:35;;;;;;;;;;;;;;;3.61;75.60;99941.16;4218358;28;20015;-67
2023/11/25 09:39:38;;;;;;;;;;;;;;;3.60;75.12;99943.97;4218828;28;20055;-68
2023/11/25 09:41:40;;;;;;;;;;;;;;;3.56;75.43;99927.44;4218854;28;20027;-67
2023/11/25 09:43:42;;;;;;;;;;;;;;;3.57;75.69;99934.47;4218570;28;20569;-68
2023/11/25 09:45:45;;;;;;;;;;;;;;;3.55;75.63;99928.41;4219354;28;20026;-68
2023/11/25 09:47:48;;;;;;;;;;;;;;;3.52;75.63;99933.22;4215569;28;20026;-68
2023/11/25 09:49:50;;;;;;;;;;;;;;;3.50;75.67;99928.03;4215286;28;20031;-68
2023/11/25 09:51:51;;;;;;;;;;;;;;;3.49;75.45;99921.00;4217196;28;20043;-68
2023/11/25 09:53:53;;;;;;;;;;;;;;;3.48;75.72;99923.81;4213674;28;20502;-68
2023/11/25 09:56:00;;;;;;;;;;;;;;;3.48;75.88;99918.50;4214065;28;20023;-68
2023/11/25 09:58:03;;;;;;;;;;;;;;;3.47;76.34;99923.00;4215522;28;20003;-68
2023/11/25 10:00:06;;;;;;;;;;;;;;;3.47;76.29;99915.00;4215202;28;20035;-68
2023/11/25 10:02:13;;;;;;;;;;;;;;;3.48;76.62;99910.47;4215653;28;20015;-68
2023/11/25 10:04:15;;;;;;;;;;;;;;;3.45;76.46;99902.78;4216238;28;20023;-68
2023/11/25 10:06:18;;;;;;;;;;;;;;;3.45;76.10;99900.97;4216798;28;20026;-68
2023/11/25 10:08:20;;;;;;;;;;;;;;;3.45;76.22;99887.63;4217121;28;20030;-68
2023/11/25 10:10:23;;;;;;;;;;;;;;;3.47;76.43;99884.78;4216167;28;20019;-68
2023/11/25 10:12:24;;;;;;;;;;;;;;;3.47;76.59;99879.47;4216618;28;20018;-68
2023/11/25 10:14:29;;;;;;;;;;;;;;;3.47;76.54;99885.63;4216824;28;20035;-68
2023/11/25 10:16:31;;;;;;;;;;;;;;;3.45;76.89;99887.63;4216795;28;20029;-70
2023/11/25 10:18:36;;;;;;;;;;;;;;;3.49;76.93;99886.31;4215460;28;20014;-69
2023/11/25 10:20:41;;;;;;;;;;;;;;;3.54;76.96;99884.03;4216859;28;20035;-69
2023/11/25 10:22:47;;;;;;;;;;;;;;;3.60;77.37;99874.56;4216432;28;20024;-66
2023/11/25 10:24:50;;;;;;;;;;;;;;;3.67;77.31;99888.13;4215405;28;20030;-69
2023/11/25 10:26:54;;;;;;;;;;;;;;;3.70;76.96;99880.66;4215551;28;20010;-68
2023/11/25 10:28:58;;;;;;;;;;;;;;;3.75;76.81;99890.91;4217166;28;20010;-66
2023/11/25 10:31:04;;;;;;;;;;;;;;;3.79;77.08;99884.22;4215041;28;20049;-67
2023/11/25 10:33:07;;;;;;;;;;;;;;;3.82;77.16;99880.41;4215047;28;20030;-68
2023/11/25 10:35:11;;;;;;;;;;;;;;;3.84;76.99;99884.63;4214514;28;20354;-68
2023/11/25 10:37:13;;;;;;;;;;;;;;;3.88;76.99;99877.13;4215610;28;20024;-68
2023/11/25 10:39:17;;;;;;;;;;;;;;;3.88;76.87;99869.94;4215113;28;20011;-67
2023/11/25 10:41:19;;;;;;;;;;;;;;;3.89;76.54;99863.63;4214882;28;19964;-68
2023/11/25 10:43:20;;;;;;;;;;;;;;;3.91;76.34;99869.63;4215064;28;20019;-68
2023/11/25 10:45:23;;;;;;;;;;;;;;;3.94;76.80;99866.66;4215052;28;19924;-68
2023/11/25 10:47:29;;;;;;;;;;;;;;;3.94;76.58;99865.81;4215381;28;20010;-69